createdAt,value
2022-08-21T00:01:44.841Z,99319.75
2022-08-21T00:04:20.795Z,99317.97
2022-08-21T00:06:51.369Z,99323.22
2022-08-21T00:09:20.264Z,99326.72
2022-08-21T00:11:48.774Z,99318.84
2022-08-21T00:14:16.481Z,99324.09
2022-08-21T00:16:44.183Z,99319.72
2022-08-21T00:19:11.939Z,99318.84
2022-08-21T00:21:39.693Z,99307.44
2022-08-21T00:24:07.712Z,99306.53
2022-08-21T00:26:35.197Z,99310.06
2022-08-21T00:29:04.935Z,99296.00
2022-08-21T00:31:32.685Z,99301.25
2022-08-21T00:34:00.826Z,99289.84
2022-08-21T00:36:29.520Z,99300.37
2022-08-21T00:38:58.007Z,99307.47
2022-08-21T00:41:37.054Z,99310.19
2022-08-21T00:44:12.861Z,99309.25
2022-08-21T00:46:41.539Z,99311.03
2022-08-21T00:49:10.367Z,99314.56
2022-08-21T00:51:44.214Z,99304.88
2022-08-21T00:54:18.683Z,99309.22
2022-08-21T00:56:47.783Z,99309.25
2022-08-21T00:59:18.274Z,99303.97
2022-08-21T01:01:46.003Z,99295.28
2022-08-21T01:04:14.026Z,99297.91
2022-08-21T01:06:41.755Z,99297.91
2022-08-21T01:09:09.899Z,99297.91
2022-08-21T01:11:37.381Z,99296.16
2022-08-21T01:14:05.080Z,99298.78
2022-08-21T01:16:33.883Z,99303.16
2022-08-21T01:19:01.275Z,99293.53
2022-08-21T01:21:29.335Z,99294.38
2022-08-21T01:23:58.022Z,99287.41
2022-08-21T01:26:33.745Z,99288.28
2022-08-21T01:29:12.790Z,99284.78
2022-08-21T01:31:40.247Z,99286.53
2022-08-21T01:34:08.972Z,99288.28
2022-08-21T01:36:36.391Z,99283.87
2022-08-21T01:39:05.116Z,99277.72
2022-08-21T01:41:32.810Z,99282.16
2022-08-21T01:44:00.240Z,99288.25
2022-08-21T01:46:27.930Z,99279.50
2022-08-21T01:48:55.616Z,99274.28
2022-08-21T01:51:23.057Z,99274.28
2022-08-21T01:53:50.512Z,99276.03
2022-08-21T01:56:19.179Z,99271.59
2022-08-21T01:58:47.849Z,99273.38
2022-08-21T02:01:15.877Z,99282.16
2022-08-21T02:03:43.724Z,99280.38
2022-08-21T02:06:14.862Z,99279.50
2022-08-21T02:08:42.278Z,99276.00
2022-08-21T02:11:09.961Z,99268.97
2022-08-21T02:13:37.404Z,99272.47
2022-08-21T02:16:04.886Z,99272.53
2022-08-21T02:18:32.715Z,99272.53
2022-08-21T02:21:00.153Z,99262.00
2022-08-21T02:23:27.758Z,99266.38
2022-08-21T02:25:59.882Z,99271.66
2022-08-21T02:28:27.801Z,99271.63
2022-08-21T02:30:56.869Z,99274.25
2022-08-21T02:33:24.996Z,99275.13
2022-08-21T02:35:54.019Z,99291.78
2022-08-21T02:38:25.409Z,99287.38
2022-08-21T02:40:53.566Z,99284.75
2022-08-21T02:43:22.235Z,99273.34
2022-08-21T02:45:51.708Z,99268.97
2022-08-21T02:48:22.278Z,99266.38
2022-08-21T02:50:55.229Z,99260.22
2022-08-21T02:53:23.426Z,99266.38
2022-08-21T02:55:51.837Z,99268.13
2022-08-21T02:58:23.235Z,99279.47
2022-08-21T03:00:52.196Z,99259.38
2022-08-21T03:03:22.031Z,99268.09
2022-08-21T03:05:49.650Z,99269.00
2022-08-21T03:08:18.649Z,99267.28
2022-08-21T03:10:49.641Z,99259.34
2022-08-21T03:13:18.411Z,99261.09
2022-08-21T03:15:45.835Z,99263.72
2022-08-21T03:18:13.656Z,99268.09
2022-08-21T03:20:42.974Z,99266.34
2022-08-21T03:23:13.307Z,99269.87
2022-08-21T03:25:45.525Z,99265.50
2022-08-21T03:28:16.633Z,99276.00
2022-08-21T03:30:46.555Z,99275.13
2022-08-21T03:33:15.392Z,99271.59
2022-08-21T03:35:44.931Z,99270.75
2022-08-21T03:38:14.027Z,99272.53
2022-08-21T03:40:43.215Z,99270.75
2022-08-21T03:43:11.033Z,99271.63
2022-08-21T03:45:39.502Z,99277.75
2022-08-21T03:48:08.020Z,99274.22
2022-08-21T03:50:40.676Z,99278.63
2022-08-21T03:53:17.075Z,99289.12
2022-08-21T03:55:47.790Z,99282.97
2022-08-21T03:58:17.929Z,99283.87
2022-08-21T04:00:47.317Z,99293.50
2022-08-21T04:03:15.074Z,99289.12
2022-08-21T04:05:42.846Z,99284.75
2022-08-21T04:08:10.328Z,99290.03
2022-08-21T04:10:40.750Z,99290.00
2022-08-21T04:13:09.330Z,99292.63
2022-08-21T04:15:36.750Z,99281.19
2022-08-21T04:18:05.746Z,99291.75
2022-08-21T04:20:33.402Z,99295.25
2022-08-21T04:23:01.307Z,99296.91
2022-08-21T04:25:29.603Z,99297.03
2022-08-21T04:27:57.106Z,99289.12
2022-08-21T04:30:28.455Z,99301.41
2022-08-21T04:32:58.410Z,99294.38
2022-08-21T04:35:27.842Z,99302.25
2022-08-21T04:37:55.649Z,99307.53
2022-08-21T04:40:25.664Z,99313.63
2022-08-21T04:42:55.623Z,99318.03
2022-08-21T04:45:29.649Z,99313.66
2022-08-21T04:47:59.023Z,99319.81
2022-08-21T04:50:51.046Z,99320.69
2022-08-21T04:53:27.698Z,99323.31
2022-08-21T04:55:56.276Z,99321.56
2022-08-21T04:58:25.991Z,99318.91
2022-08-21T05:00:55.550Z,99310.19
2022-08-21T05:03:23.733Z,99324.16
2022-08-21T05:05:51.364Z,99323.25
2022-08-21T05:08:21.016Z,99314.53
2022-08-21T05:10:48.853Z,99324.16
2022-08-21T05:13:16.504Z,99328.53
2022-08-21T05:15:43.905Z,99325.06
2022-08-21T05:18:11.910Z,99336.47
2022-08-21T05:20:39.507Z,99333.81
2022-08-21T05:23:13.080Z,99326.81
2022-08-21T05:25:41.250Z,99333.81
2022-08-21T05:28:09.246Z,99333.78
2022-08-21T05:30:37.979Z,99332.03
2022-08-21T05:33:07.049Z,99328.56
2022-08-21T05:35:35.016Z,99342.59
2022-08-21T05:38:02.989Z,99346.09
2022-08-21T05:40:30.789Z,99339.06
2022-08-21T05:43:00.188Z,99332.94
2022-08-21T05:45:43.130Z,99339.97
2022-08-21T05:48:17.102Z,99332.97
2022-08-21T05:50:46.374Z,99328.50
2022-08-21T05:53:15.259Z,99338.13
2022-08-21T05:55:46.158Z,99332.84
2022-08-21T05:58:19.973Z,99329.38
2022-08-21T06:00:49.186Z,99325.03
2022-08-21T06:03:20.575Z,99325.91
2022-08-21T06:05:48.492Z,99322.31
2022-08-21T06:08:17.865Z,99339.84
2022-08-21T06:10:46.570Z,99326.81
2022-08-21T06:13:15.094Z,99332.03
2022-08-21T06:15:42.824Z,99333.75
2022-08-21T06:18:11.123Z,99326.78
2022-08-21T06:20:39.241Z,99332.03
2022-08-21T06:23:06.727Z,99335.56
2022-08-21T06:25:34.737Z,99329.34
2022-08-21T06:28:03.464Z,99328.53
2022-08-21T06:30:30.933Z,99333.81
2022-08-21T06:32:58.899Z,99339.06
2022-08-21T06:35:26.725Z,99331.19
2022-08-21T06:37:54.233Z,99337.31
2022-08-21T06:40:22.102Z,99338.13
2022-08-21T06:42:54.251Z,99328.50
2022-08-21T06:45:22.713Z,99339.91
2022-08-21T06:47:50.117Z,99337.28
2022-08-21T06:50:17.574Z,99341.62
2022-08-21T06:52:45.227Z,99337.25
2022-08-21T06:55:12.849Z,99346.13
2022-08-21T06:57:52.357Z,99339.06
2022-08-21T07:00:20.571Z,99341.66
2022-08-21T07:02:48.047Z,99339.03
2022-08-21T07:05:18.407Z,99336.41
2022-08-21T07:07:47.021Z,99342.50
2022-08-21T07:10:21.782Z,99347.72
2022-08-21T07:12:51.264Z,99344.34
2022-08-21T07:15:28.611Z,99338.09
2022-08-21T07:17:59.401Z,99342.44
2022-08-21T07:20:28.629Z,99338.87
2022-08-21T07:22:58.138Z,99339.78
2022-08-21T07:25:26.037Z,99327.41
2022-08-21T07:27:53.865Z,99329.16
2022-08-21T07:30:21.521Z,99335.12
2022-08-21T07:32:52.359Z,99321.75
2022-08-21T07:35:21.153Z,99329.91
2022-08-21T07:37:49.494Z,99333.25
2022-08-21T07:40:18.250Z,99338.53
2022-08-21T07:42:47.864Z,99322.44
2022-08-21T07:45:15.603Z,99321.41
2022-08-21T07:47:43.200Z,99318.84
2022-08-21T07:50:12.975Z,99325.94
2022-08-21T07:52:41.951Z,99313.56
2022-08-21T07:55:11.939Z,99318.56
2022-08-21T07:57:39.812Z,99316.22
2022-08-21T08:00:10.871Z,99325.69
2022-08-21T08:02:39.734Z,99313.63
2022-08-21T08:05:10.637Z,99318.13
2022-08-21T08:07:38.473Z,99310.62
2022-08-21T08:10:07.954Z,99318.28
2022-08-21T08:12:41.196Z,99313.13
2022-08-21T08:15:15.733Z,99312.97
2022-08-21T08:17:43.562Z,99304.00
2022-08-21T08:20:17.146Z,99308.34
2022-08-21T08:22:50.266Z,99304.09
2022-08-21T08:25:18.769Z,99293.53
2022-08-21T08:27:46.537Z,99299.91
2022-08-21T08:30:16.586Z,99302.13
2022-08-21T08:32:43.964Z,99295.97
2022-08-21T08:35:12.812Z,99296.72
2022-08-21T08:37:41.926Z,99298.03
2022-08-21T08:40:36.756Z,99291.44
2022-08-21T08:43:06.613Z,99294.28
2022-08-21T08:45:37.860Z,99304.56
2022-08-21T08:48:14.044Z,99300.31
2022-08-21T08:50:50.906Z,99294.38
2022-08-21T08:53:29.381Z,99307.37
2022-08-21T08:55:57.636Z,99309.91
2022-08-21T08:58:33.908Z,99299.28
2022-08-21T09:01:02.779Z,99303.53
2022-08-21T09:03:30.695Z,99301.28
2022-08-21T09:06:16.733Z,99303.22
2022-08-21T09:08:59.645Z,99308.91
2022-08-21T09:11:37.878Z,99306.25
2022-08-21T09:14:23.138Z,99304.34
2022-08-21T09:17:03.962Z,99300.34
2022-08-21T09:19:51.555Z,99303.69
2022-08-21T09:22:35.803Z,99299.25
2022-08-21T09:25:25.340Z,99300.56
2022-08-21T09:27:52.986Z,99288.78
2022-08-21T09:30:27.029Z,99289.94
2022-08-21T09:32:54.769Z,99290.47
2022-08-21T09:35:25.080Z,99295.03
2022-08-21T09:37:56.625Z,99294.88
2022-08-21T09:40:36.540Z,99288.31
2022-08-21T09:43:08.257Z,99301.81
2022-08-21T09:45:36.624Z,99293.84
2022-08-21T09:48:11.961Z,99283.59
2022-08-21T09:50:40.743Z,99285.41
2022-08-21T09:53:18.521Z,99285.91
2022-08-21T09:56:11.923Z,99281.31
2022-08-21T09:58:42.475Z,99286.00
2022-08-21T10:01:16.222Z,99289.81
2022-08-21T10:03:44.228Z,99289.41
2022-08-21T10:06:23.563Z,99295.91
2022-08-21T10:08:51.311Z,99290.31
2022-08-21T10:11:25.175Z,99295.91
2022-08-21T10:14:01.788Z,99283.03
2022-08-21T10:16:57.966Z,99292.81
2022-08-21T10:19:33.515Z,99296.88
2022-08-21T10:22:34.111Z,99286.84
2022-08-21T10:25:11.476Z,99292.41
2022-08-21T10:27:45.155Z,99292.87
2022-08-21T10:30:16.273Z,99291.91
2022-08-21T10:32:59.847Z,99281.31
2022-08-21T10:35:33.306Z,99290.50
2022-08-21T10:38:52.505Z,99296.09
2022-08-21T10:41:41.636Z,99294.69
2022-08-21T10:44:28.006Z,99284.75
2022-08-21T10:47:01.182Z,99284.41
2022-08-21T10:49:47.289Z,99276.97
2022-08-21T10:52:52.094Z,99279.31
2022-08-21T10:55:27.341Z,99275.75
2022-08-21T10:58:22.609Z,99284.37
2022-08-21T11:00:54.461Z,99275.13
2022-08-21T11:03:39.513Z,99267.78
2022-08-21T11:06:13.364Z,99270.28
2022-08-21T11:08:44.673Z,99265.03
2022-08-21T11:11:31.080Z,99271.50
2022-08-21T11:14:22.621Z,99265.03
2022-08-21T11:17:00.747Z,99262.88
2022-08-21T11:19:55.095Z,99264.63
2022-08-21T11:22:28.064Z,99266.63
2022-08-21T11:25:04.080Z,99262.59
2022-08-21T11:27:46.806Z,99269.41
2022-08-21T11:30:15.096Z,99261.50
2022-08-21T11:32:45.089Z,99273.38
2022-08-21T11:35:27.783Z,99258.16
2022-08-21T11:37:58.441Z,99271.66
2022-08-21T11:40:26.323Z,99269.78
2022-08-21T11:42:56.812Z,99263.53
2022-08-21T11:45:46.980Z,99263.22
2022-08-21T11:48:33.037Z,99250.47
2022-08-21T11:51:06.362Z,99243.19
2022-08-21T11:53:54.310Z,99245.84
2022-08-21T11:56:30.035Z,99250.47
2022-08-21T11:59:08.780Z,99246.87
2022-08-21T12:01:41.599Z,99248.44
2022-08-21T12:04:10.972Z,99250.22
2022-08-21T12:06:41.317Z,99248.31
2022-08-21T12:09:35.343Z,99254.06
2022-08-21T12:12:24.784Z,99250.81
2022-08-21T12:15:14.097Z,99254.50
2022-08-21T12:17:51.916Z,99254.16
2022-08-21T12:20:22.334Z,99253.34
2022-08-21T12:23:04.959Z,99245.38
2022-08-21T12:26:01.757Z,99254.37
2022-08-21T12:28:31.252Z,99249.31
2022-08-21T12:30:59.114Z,99248.47
2022-08-21T12:33:36.629Z,99248.22
2022-08-21T12:36:08.691Z,99239.47
2022-08-21T12:38:52.653Z,99247.75
2022-08-21T12:41:33.571Z,99239.09
2022-08-21T12:44:06.650Z,99240.09
2022-08-21T12:46:47.488Z,99239.75
2022-08-21T12:49:19.818Z,99250.84
2022-08-21T12:51:58.681Z,99248.19
2022-08-21T12:54:39.371Z,99243.78
2022-08-21T12:57:08.001Z,99242.91
2022-08-21T12:59:40.146Z,99239.37
2022-08-21T13:02:17.911Z,99238.97
2022-08-21T13:04:45.936Z,99236.84
2022-08-21T13:07:23.836Z,99243.91
2022-08-21T13:09:56.722Z,99233.84
2022-08-21T13:12:28.347Z,99234.13
2022-08-21T13:15:08.763Z,99222.87
2022-08-21T13:17:41.042Z,99232.53
2022-08-21T13:20:23.017Z,99225.00
2022-08-21T13:22:50.945Z,99220.44
2022-08-21T13:25:20.528Z,99210.56
2022-08-21T13:28:15.714Z,99216.00
2022-08-21T13:30:48.433Z,99217.25
2022-08-21T13:33:17.628Z,99220.56
2022-08-21T13:35:52.457Z,99234.91
2022-08-21T13:38:20.874Z,99233.78
2022-08-21T13:41:02.346Z,99231.09
2022-08-21T13:43:34.159Z,99235.19
2022-08-21T13:46:03.699Z,99239.91
2022-08-21T13:48:34.425Z,99236.97
2022-08-21T13:51:02.761Z,99232.16
2022-08-21T13:53:36.645Z,99236.66
2022-08-21T13:56:05.506Z,99230.28
2022-08-21T13:58:44.582Z,99236.16
2022-08-21T14:01:28.863Z,99227.88
2022-08-21T14:04:09.354Z,99223.50
2022-08-21T14:06:38.741Z,99213.44
2022-08-21T14:09:11.942Z,99214.69
2022-08-21T14:11:40.563Z,99221.56
2022-08-21T14:14:21.275Z,99219.91
2022-08-21T14:17:25.065Z,99223.63
2022-08-21T14:19:57.012Z,99230.69
2022-08-21T14:22:30.806Z,99220.75
2022-08-21T14:25:24.189Z,99220.47
2022-08-21T14:27:55.239Z,99219.44
2022-08-21T14:30:35.882Z,99217.56
2022-08-21T14:33:05.194Z,99220.00
2022-08-21T14:35:33.661Z,99219.38
2022-08-21T14:38:01.181Z,99229.16
2022-08-21T14:40:30.945Z,99226.94
2022-08-21T14:42:58.979Z,99225.75
2022-08-21T14:45:30.922Z,99219.28
2022-08-21T14:47:59.693Z,99221.34
2022-08-21T14:50:28.266Z,99223.94
2022-08-21T14:52:56.223Z,99228.25
2022-08-21T14:55:24.061Z,99222.91
2022-08-21T14:57:53.509Z,99220.06
2022-08-21T15:00:27.075Z,99223.03
2022-08-21T15:03:03.644Z,99216.03
2022-08-21T15:05:33.848Z,99218.34
2022-08-21T15:08:02.269Z,99216.41
2022-08-21T15:10:31.220Z,99216.84
2022-08-21T15:12:58.756Z,99211.09
2022-08-21T15:15:26.250Z,99214.72
2022-08-21T15:17:53.999Z,99213.97
2022-08-21T15:20:21.413Z,99208.06
2022-08-21T15:22:48.936Z,99204.31
2022-08-21T15:25:18.011Z,99206.28
2022-08-21T15:27:45.441Z,99218.25
2022-08-21T15:30:13.211Z,99218.97
2022-08-21T15:32:42.554Z,99214.53
2022-08-21T15:35:10.305Z,99213.69
2022-08-21T15:37:37.820Z,99216.53
2022-08-21T15:40:08.178Z,99215.53
2022-08-21T15:42:35.961Z,99216.81
2022-08-21T15:45:04.225Z,99211.78
2022-08-21T15:47:34.550Z,99212.22
2022-08-21T15:50:02.777Z,99213.50
2022-08-21T15:52:30.277Z,99206.09
2022-08-21T15:54:58.037Z,99218.50
2022-08-21T15:57:26.177Z,99213.12
2022-08-21T16:00:12.789Z,99210.31
2022-08-21T16:02:44.907Z,99210.31
2022-08-21T16:05:13.609Z,99207.38
2022-08-21T16:07:41.315Z,99212.78
2022-08-21T16:10:09.206Z,99210.19
2022-08-21T16:12:41.599Z,99212.62
2022-08-21T16:15:11.477Z,99208.28
2022-08-21T16:17:51.156Z,99209.37
2022-08-21T16:20:25.404Z,99212.28
2022-08-21T16:22:54.157Z,99215.69
2022-08-21T16:25:22.002Z,99222.78
2022-08-21T16:27:59.253Z,99222.00
2022-08-21T16:30:28.727Z,99220.38
2022-08-21T16:32:56.849Z,99215.91
2022-08-21T16:35:25.267Z,99221.38
2022-08-21T16:37:53.562Z,99223.13
2022-08-21T16:40:27.169Z,99220.56
2022-08-21T16:42:55.729Z,99217.19
2022-08-21T16:45:23.377Z,99211.16
2022-08-21T16:47:51.455Z,99212.84
2022-08-21T16:50:23.530Z,99210.97
2022-08-21T16:52:51.707Z,99216.22
2022-08-21T16:55:19.513Z,99205.00
2022-08-21T16:57:47.317Z,99204.28
2022-08-21T17:00:15.731Z,99206.03
2022-08-21T17:02:51.242Z,99205.03
2022-08-21T17:05:19.127Z,99208.66
2022-08-21T17:07:46.890Z,99200.59
2022-08-21T17:10:16.835Z,99205.25
2022-08-21T17:12:46.589Z,99214.09
2022-08-21T17:15:21.469Z,99204.31
2022-08-21T17:17:49.256Z,99202.53
2022-08-21T17:20:18.552Z,99201.25
2022-08-21T17:22:46.156Z,99202.47
2022-08-21T17:25:13.637Z,99200.41
2022-08-21T17:27:44.209Z,99199.38
2022-08-21T17:30:12.961Z,99199.25
2022-08-21T17:32:42.385Z,99199.41
2022-08-21T17:35:10.612Z,99207.50
2022-08-21T17:37:38.395Z,99208.13
2022-08-21T17:40:08.592Z,99205.66
2022-08-21T17:42:36.647Z,99205.75
2022-08-21T17:45:04.689Z,99205.66
2022-08-21T17:47:32.526Z,99212.84
2022-08-21T17:50:00.020Z,99217.38
2022-08-21T17:52:27.542Z,99217.59
2022-08-21T17:54:55.399Z,99216.59
2022-08-21T17:57:23.962Z,99222.00
2022-08-21T17:59:55.164Z,99210.59
2022-08-21T18:02:25.608Z,99213.59
2022-08-21T18:04:55.381Z,99198.59
2022-08-21T18:07:32.031Z,99202.91
2022-08-21T18:10:02.119Z,99210.94
2022-08-21T18:12:30.734Z,99215.13
2022-08-21T18:14:59.616Z,99212.56
2022-08-21T18:17:29.693Z,99218.13
2022-08-21T18:19:57.213Z,99217.06
2022-08-21T18:22:24.651Z,99216.16
2022-08-21T18:24:52.370Z,99215.19
2022-08-21T18:27:24.595Z,99218.44
2022-08-21T18:29:56.499Z,99220.41
2022-08-21T18:32:31.122Z,99229.16
2022-08-21T18:35:02.060Z,99225.00
2022-08-21T18:37:29.865Z,99233.47
2022-08-21T18:39:58.061Z,99231.94
2022-08-21T18:42:28.605Z,99239.63
2022-08-21T18:45:01.181Z,99240.81
2022-08-21T18:47:33.921Z,99240.94
2022-08-21T18:50:02.146Z,99242.75
2022-08-21T18:52:31.829Z,99239.06
2022-08-21T18:55:05.971Z,99235.69
2022-08-21T18:57:35.697Z,99240.97
2022-08-21T19:00:13.070Z,99236.53
2022-08-21T19:02:44.072Z,99231.22
2022-08-21T19:05:15.267Z,99224.06
2022-08-21T19:07:46.047Z,99235.72
2022-08-21T19:10:30.882Z,99235.72
2022-08-21T19:13:01.371Z,99228.44
2022-08-21T19:15:30.068Z,99229.56
2022-08-21T19:17:58.725Z,99227.84
2022-08-21T19:20:35.112Z,99230.47
2022-08-21T19:23:08.678Z,99230.44
2022-08-21T19:25:41.927Z,99223.47
2022-08-21T19:28:14.079Z,99218.84
2022-08-21T19:30:52.161Z,99226.72
2022-08-21T19:33:26.501Z,99216.16
2022-08-21T19:35:55.812Z,99221.38
2022-08-21T19:38:25.718Z,99216.28
2022-08-21T19:40:55.167Z,99218.97
2022-08-21T19:43:24.047Z,99222.25
2022-08-21T19:45:56.752Z,99216.19
2022-08-21T19:48:26.059Z,99221.56
2022-08-21T19:50:55.644Z,99215.44
2022-08-21T19:53:23.686Z,99217.84
2022-08-21T19:55:51.790Z,99216.00
2022-08-21T19:58:42.793Z,99218.06
2022-08-21T20:01:16.339Z,99215.28
2022-08-21T20:03:53.861Z,99210.84
2022-08-21T20:06:24.520Z,99209.16
2022-08-21T20:08:55.108Z,99214.56
2022-08-21T20:11:33.240Z,99213.66
2022-08-21T20:14:01.888Z,99216.34
2022-08-21T20:16:29.988Z,99214.59
2022-08-21T20:18:58.445Z,99210.28
2022-08-21T20:21:26.624Z,99213.78
2022-08-21T20:23:54.412Z,99206.84
2022-08-21T20:26:23.086Z,99205.03
2022-08-21T20:28:51.828Z,99209.47
2022-08-21T20:31:21.741Z,99197.16
2022-08-21T20:33:50.029Z,99199.81
2022-08-21T20:36:19.096Z,99197.19
2022-08-21T20:38:48.267Z,99198.94
2022-08-21T20:41:17.944Z,99192.81
2022-08-21T20:43:51.017Z,99188.38
2022-08-21T20:46:23.118Z,99188.44
2022-08-21T20:48:51.419Z,99184.97
2022-08-21T20:51:30.722Z,99184.00
2022-08-21T20:54:26.037Z,99184.91
2022-08-21T20:57:01.775Z,99173.56
2022-08-21T20:59:36.288Z,99174.44
2022-08-21T21:02:17.343Z,99173.28
2022-08-21T21:08:03.800Z,99178.69
2022-08-21T21:10:49.755Z,99177.59
2022-08-21T21:13:27.823Z,99175.31
2022-08-21T21:16:06.619Z,99184.91
2022-08-21T21:18:44.435Z,99185.81
2022-08-21T21:21:18.638Z,99172.56
2022-08-21T21:23:53.262Z,99165.44
2022-08-21T21:26:29.337Z,99177.94
2022-08-21T21:29:14.056Z,99166.47
2022-08-21T21:31:42.081Z,99169.09
2022-08-21T21:34:17.344Z,99160.38
2022-08-21T21:36:56.055Z,99169.19
2022-08-21T21:39:36.045Z,99165.63
2022-08-21T21:42:10.513Z,99164.69
2022-08-21T21:45:03.356Z,99177.06
2022-08-21T21:47:34.021Z,99174.41
2022-08-21T21:50:33.263Z,99170.94
2022-08-21T21:53:16.474Z,99167.44
2022-08-21T21:56:12.766Z,99157.63
2022-08-21T21:59:15.684Z,99159.56
2022-08-21T22:02:09.111Z,99157.81
2022-08-21T22:05:19.445Z,99160.44
2022-08-21T22:07:59.418Z,99155.97
2022-08-21T22:10:43.022Z,99153.44
2022-08-21T22:13:39.126Z,99153.47
2022-08-21T22:16:07.957Z,99156.97
2022-08-21T22:18:57.585Z,99152.47
2022-08-21T22:21:34.290Z,99154.09
2022-08-21T22:24:29.393Z,99151.50
2022-08-21T22:27:11.343Z,99154.13
2022-08-21T22:29:52.908Z,99142.75
2022-08-21T22:32:28.022Z,99142.84
2022-08-21T22:35:15.519Z,99144.53
2022-08-21T22:38:01.421Z,99144.53
2022-08-21T22:40:32.603Z,99138.53
2022-08-21T22:43:03.096Z,99142.06
2022-08-21T22:46:06.881Z,99142.00
2022-08-21T22:48:38.625Z,99148.19
2022-08-21T22:51:29.998Z,99149.88
2022-08-21T22:54:01.130Z,99149.00
2022-08-21T22:56:33.217Z,99149.94
2022-08-21T22:59:04.911Z,99146.44
2022-08-21T23:01:40.190Z,99144.66
2022-08-21T23:04:14.168Z,99134.19
2022-08-21T23:06:56.297Z,99135.03
2022-08-21T23:09:36.332Z,99128.94
2022-08-21T23:12:34.032Z,99135.97
2022-08-21T23:15:12.363Z,99127.09
2022-08-21T23:18:05.441Z,99127.06
2022-08-21T23:20:55.570Z,99127.13
2022-08-21T23:23:31.122Z,99125.37
2022-08-21T23:26:17.404Z,99123.59
2022-08-21T23:28:55.216Z,99113.97
2022-08-21T23:31:44.420Z,99111.34
2022-08-21T23:34:20.759Z,99113.16
2022-08-21T23:37:48.736Z,99111.41
2022-08-21T23:40:18.366Z,99118.38
2022-08-21T23:43:05.005Z,99118.44
2022-08-21T23:45:55.964Z,99114.97
2022-08-21T23:48:34.073Z,99114.06
2022-08-21T23:51:09.087Z,99115.72
2022-08-21T23:54:14.676Z,99115.59
2022-08-21T23:56:54.251Z,99107.59
2022-08-21T23:59:43.792Z,99107.91
